Time;durP1;ratioP1;P1;durP2;ratioP2;P2;SDS_P1;SDS_P2;PMS_P1;PMS_P2;Temp;Humidity;BMP_temperature;BMP_pressure;BME280_temperature;BME280_humidity;BME280_pressure;Samples;Min_cycle;Max_cycle;Signal;HPM_P1;HPM_P2
2023/04/07 00:00:37;;;;;;;4.68;1.52;;;;;;;;;;5024335;28;20106;-58
2023/04/07 00:03:05;;;;;;;8.80;1.98;;;;;;;;;;5008216;28;20046;-58
2023/04/07 00:05:31;;;;;;;6.28;2.10;;;;;;;;;;5006087;28;20116;-58
2023/04/07 00:07:58;;;;;;;7.07;2.00;;;;;;;;;;5000118;28;20065;-58
2023/04/07 00:10:24;;;;;;;6.63;2.53;;;;;;;;;;5009303;28;20632;-58
2023/04/07 00:12:51;;;;;;;4.43;1.73;;;;;;;;;;5008461;28;20551;-58
2023/04/07 00:15:17;;;;;;;8.75;4.00;;;;;;;;;;5012277;28;20042;-58
2023/04/07 00:17:43;;;;;;;7.97;2.03;;;;;;;;;;5010071;28;20056;-58
2023/04/07 00:20:09;;;;;;;6.38;1.95;;;;;;;;;;5011775;28;20098;-58
2023/04/07 00:22:35;;;;;;;3.20;1.75;;;;;;;;;;5005471;28;20038;-58
2023/04/07 00:25:01;;;;;;;7.32;2.17;;;;;;;;;;5009413;28;20050;-58
2023/04/07 00:27:27;;;;;;;8.75;2.88;;;;;;;;;;5007836;28;20050;-58
2023/04/07 00:29:54;;;;;;;11.55;2.25;;;;;;;;;;5008482;28;20049;-58
2023/04/07 00:32:20;;;;;;;4.93;1.98;;;;;;;;;;5006022;28;20092;-58
2023/04/07 00:34:46;;;;;;;6.15;1.75;;;;;;;;;;5006412;28;20053;-58
2023/04/07 00:37:13;;;;;;;5.63;2.28;;;;;;;;;;5026216;28;20046;-59
2023/04/07 00:39:39;;;;;;;3.50;1.75;;;;;;;;;;5014045;28;20085;-58
2023/04/07 00:42:06;;;;;;;3.40;1.60;;;;;;;;;;5008235;28;20872;-59
2023/04/07 00:44:32;;;;;;;17.42;3.00;;;;;;;;;;5012261;28;20124;-58
2023/04/07 00:46:59;;;;;;;6.97;2.50;;;;;;;;;;5011762;28;20038;-58
2023/04/07 00:49:27;;;;;;;8.30;1.92;;;;;;;;;;5013371;28;20519;-58
2023/04/07 00:51:53;;;;;;;7.25;2.17;;;;;;;;;;5013350;28;20532;-59
2023/04/07 00:54:20;;;;;;;2.38;1.48;;;;;;;;;;5013833;28;20523;-58
2023/04/07 00:56:46;;;;;;;8.02;2.20;;;;;;;;;;5010711;28;20042;-59
2023/04/07 00:59:12;;;;;;;11.88;2.55;;;;;;;;;;5012106;28;20081;-58
2023/04/07 01:01:41;;;;;;;7.32;1.85;;;;;;;;;;5010228;28;20101;-58
2023/04/07 01:04:26;;;;;;;5.05;3.13;;;;;;;;;;5011182;28;20038;-59
2023/04/07 01:06:56;;;;;;;4.93;1.80;;;;;;;;;;5012724;28;20038;-58
2023/04/07 01:09:29;;;;;;;7.50;1.90;;;;;;;;;;5007450;28;21230;-58
2023/04/07 01:12:04;;;;;;;6.35;2.05;;;;;;;;;;5010755;28;20076;-59
2023/04/07 01:14:40;;;;;;;6.75;2.67;;;;;;;;;;5011242;28;20153;-58
2023/04/07 01:17:07;;;;;;;6.28;1.80;;;;;;;;;;5014239;28;20046;-59
2023/04/07 01:19:36;;;;;;;5.55;2.03;;;;;;;;;;5013269;28;20627;-59
2023/04/07 01:22:06;;;;;;;10.93;2.28;;;;;;;;;;5009863;28;20057;-59
2023/04/07 01:24:44;;;;;;;13.00;4.65;;;;;;;;;;5013579;28;20106;-58
2023/04/07 01:27:19;;;;;;;8.90;2.58;;;;;;;;;;5012055;28;20092;-58
2023/04/07 01:29:49;;;;;;;10.23;2.17;;;;;;;;;;5011973;28;20050;-59
2023/04/07 01:32:19;;;;;;;5.22;3.13;;;;;;;;;;5007184;28;20053;-58
2023/04/07 01:34:47;;;;;;;4.53;1.52;;;;;;;;;;5011784;28;20389;-59
2023/04/07 01:37:14;;;;;;;9.52;2.55;;;;;;;;;;5009796;28;20050;-58
2023/04/07 01:39:40;;;;;;;5.05;2.20;;;;;;;;;;5008921;28;21350;-59
2023/04/07 01:42:06;;;;;;;11.18;2.88;;;;;;;;;;5010930;28;20046;-59
2023/04/07 01:44:33;;;;;;;4.25;2.40;;;;;;;;;;5013095;28;20181;-58
2023/04/07 01:46:59;;;;;;;5.47;1.98;;;;;;;;;;5008390;28;20259;-58
2023/04/07 01:49:26;;;;;;;9.77;2.83;;;;;;;;;;5010557;28;20053;-58
2023/04/07 01:51:53;;;;;;;6.20;1.80;;;;;;;;;;5009733;28;20038;-58
2023/04/07 01:54:20;;;;;;;9.02;3.00;;;;;;;;;;5011350;28;20105;-58
2023/04/07 01:56:46;;;;;;;6.65;2.50;;;;;;;;;;5012261;28;20042;-59
2023/04/07 01:59:12;;;;;;;7.18;2.42;;;;;;;;;;5008532;28;20042;-59
2023/04/07 02:01:38;;;;;;;7.68;2.15;;;;;;;;;;5014173;28;20627;-58
2023/04/07 02:04:07;;;;;;;4.82;2.67;;;;;;;;;;5009472;28;20037;-58
2023/04/07 02:06:48;;;;;;;10.77;3.38;;;;;;;;;;5006919;28;20034;-58
2023/04/07 02:09:15;;;;;;;9.02;2.47;;;;;;;;;;5009499;28;20047;-58
2023/04/07 02:11:41;;;;;;;8.50;2.88;;;;;;;;;;5011780;28;20046;-58
2023/04/07 02:14:09;;;;;;;10.65;2.88;;;;;;;;;;5012238;28;20058;-58
2023/04/07 02:16:35;;;;;;;11.93;2.03;;;;;;;;;;5013381;28;20077;-58
2023/04/07 02:19:02;;;;;;;8.52;2.42;;;;;;;;;;5012522;28;21041;-59
2023/04/07 02:21:29;;;;;;;6.43;3.22;;;;;;;;;;5012162;28;20499;-58
2023/04/07 02:23:55;;;;;;;6.20;2.35;;;;;;;;;;5010547;28;20070;-59
2023/04/07 02:26:21;;;;;;;8.32;3.55;;;;;;;;;;5009790;28;20575;-59
2023/04/07 02:28:47;;;;;;;9.32;2.50;;;;;;;;;;5011107;28;20050;-59
2023/04/07 02:31:13;;;;;;;8.82;3.15;;;;;;;;;;5011702;28;20048;-59
2023/04/07 02:33:39;;;;;;;6.32;2.85;;;;;;;;;;5007864;28;20348;-60
2023/04/07 02:36:05;;;;;;;12.38;4.32;;;;;;;;;;5008893;28;20052;-59
2023/04/07 02:38:32;;;;;;;11.18;3.13;;;;;;;;;;5010221;28;21192;-59
2023/04/07 02:40:58;;;;;;;8.32;3.03;;;;;;;;;;5011361;28;20049;-59
2023/04/07 02:43:24;;;;;;;9.48;3.38;;;;;;;;;;5009166;28;20590;-59
2023/04/07 02:45:50;;;;;;;12.52;4.10;;;;;;;;;;5025332;28;20049;-59
2023/04/07 02:48:16;;;;;;;4.70;2.25;;;;;;;;;;5009351;28;20050;-59
2023/04/07 02:50:42;;;;;;;2.50;1.48;;;;;;;;;;5013042;28;20037;-59
2023/04/07 02:53:09;;;;;;;10.30;3.47;;;;;;;;;;5012867;28;20162;-59
2023/04/07 02:55:35;;;;;;;5.05;2.72;;;;;;;;;;5012251;28;20081;-59
2023/04/07 02:58:01;;;;;;;8.18;2.97;;;;;;;;;;5010795;28;20053;-59
2023/04/07 03:00:27;;;;;;;9.73;3.75;;;;;;;;;;5009081;28;20511;-59
2023/04/07 03:02:53;;;;;;;9.23;3.63;;;;;;;;;;5012275;28;20079;-59
2023/04/07 03:05:19;;;;;;;11.40;4.03;;;;;;;;;;5011643;28;20042;-59
2023/04/07 03:07:45;;;;;;;7.65;3.97;;;;;;;;;;5010088;28;20070;-59
2023/04/07 03:10:11;;;;;;;11.43;5.38;;;;;;;;;;5006897;28;20061;-60
2023/04/07 03:12:37;;;;;;;8.63;3.60;;;;;;;;;;5010285;28;20045;-59
2023/04/07 03:15:04;;;;;;;12.48;3.83;;;;;;;;;;5009378;28;20050;-59
2023/04/07 03:17:30;;;;;;;8.38;4.07;;;;;;;;;;5010478;28;20046;-59
2023/04/07 03:19:56;;;;;;;6.45;2.95;;;;;;;;;;5006848;28;20046;-60
2023/04/07 03:22:22;;;;;;;10.23;4.18;;;;;;;;;;5011514;28;20042;-59
2023/04/07 03:24:48;;;;;;;15.65;5.50;;;;;;;;;;5010387;28;20185;-59
2023/04/07 03:27:16;;;;;;;9.63;3.80;;;;;;;;;;5010562;28;20085;-59
2023/04/07 03:29:42;;;;;;;8.40;3.90;;;;;;;;;;5010509;28;20502;-59
2023/04/07 03:32:08;;;;;;;16.80;5.53;;;;;;;;;;5009261;28;20054;-59
2023/04/07 03:34:34;;;;;;;7.30;3.75;;;;;;;;;;5010737;28;20038;-59
2023/04/07 03:37:00;;;;;;;23.52;6.47;;;;;;;;;;5003882;28;20045;-59
2023/04/07 03:39:26;;;;;;;10.88;4.03;;;;;;;;;;5007957;28;20038;-59
2023/04/07 03:41:53;;;;;;;10.93;4.07;;;;;;;;;;5011627;28;20052;-59
2023/04/07 03:44:19;;;;;;;10.88;5.00;;;;;;;;;;5011649;28;20124;-59
2023/04/07 03:46:46;;;;;;;14.13;4.93;;;;;;;;;;5008687;28;20129;-60
2023/04/07 03:49:12;;;;;;;16.25;5.35;;;;;;;;;;5010810;28;20509;-59
2023/04/07 03:51:39;;;;;;;14.80;5.43;;;;;;;;;;5010441;28;20485;-59
2023/04/07 03:54:05;;;;;;;10.43;4.32;;;;;;;;;;5010135;28;20061;-59
2023/04/07 03:56:31;;;;;;;12.13;4.25;;;;;;;;;;5010233;28;20521;-60
2023/04/07 03:58:57;;;;;;;8.18;4.10;;;;;;;;;;5008989;28;20093;-59
2023/04/07 04:01:23;;;;;;;9.80;4.22;;;;;;;;;;5009349;28;20088;-59
2023/04/07 04:03:50;;;;;;;15.52;4.78;;;;;;;;;;5010987;28;20045;-60
2023/04/07 04:06:16;;;;;;;15.32;5.15;;;;;;;;;;5005558;28;20049;-59
2023/04/07 04:08:42;;;;;;;13.13;5.13;;;;;;;;;;5008363;28;20508;-59
2023/04/07 04:11:08;;;;;;;11.48;5.78;;;;;;;;;;5001999;28;20049;-60
2023/04/07 04:13:35;;;;;;;12.85;5.38;;;;;;;;;;5007021;28;20041;-59
2023/04/07 04:16:01;;;;;;;13.50;5.13;;;;;;;;;;5013190;28;20046;-59
2023/04/07 04:18:27;;;;;;;12.85;6.22;;;;;;;;;;5013878;28;20038;-60
2023/04/07 04:20:53;;;;;;;8.70;4.43;;;;;;;;;;5014199;28;20046;-60
2023/04/07 04:23:19;;;;;;;15.02;5.40;;;;;;;;;;5012222;28;20097;-60
2023/04/07 04:25:45;;;;;;;20.25;6.50;;;;;;;;;;5012438;28;22076;-59
2023/04/07 04:28:11;;;;;;;14.02;7.50;;;;;;;;;;5012639;28;20129;-59
2023/04/07 04:30:37;;;;;;;16.05;6.25;;;;;;;;;;5028018;28;20720;-59
2023/04/07 04:33:03;;;;;;;13.88;5.32;;;;;;;;;;5015320;28;20137;-59
2023/04/07 04:35:30;;;;;;;16.88;7.05;;;;;;;;;;5009229;28;20042;-59
2023/04/07 04:37:56;;;;;;;12.57;7.22;;;;;;;;;;5027659;28;20109;-59
2023/04/07 04:40:22;;;;;;;11.98;6.43;;;;;;;;;;5012413;28;20038;-59
2023/04/07 04:42:48;;;;;;;19.50;7.78;;;;;;;;;;5011897;28;20057;-59
2023/04/07 04:45:14;;;;;;;17.77;8.77;;;;;;;;;;5012117;28;21355;-59
2023/04/07 04:47:42;;;;;;;12.57;6.05;;;;;;;;;;5029373;28;20041;-59
2023/04/07 04:50:08;;;;;;;16.05;8.18;;;;;;;;;;5012799;28;20045;-59
2023/04/07 04:52:34;;;;;;;14.40;7.72;;;;;;;;;;5012955;28;20589;-60
2023/04/07 04:55:00;;;;;;;11.77;6.15;;;;;;;;;;5027037;28;20858;-59
2023/04/07 04:57:26;;;;;;;20.50;6.80;;;;;;;;;;5011310;28;20039;-59
2023/04/07 04:59:52;;;;;;;18.55;7.40;;;;;;;;;;5012545;28;20049;-59
2023/04/07 05:02:18;;;;;;;17.90;8.55;;;;;;;;;;5013014;28;20038;-60
2023/04/07 05:04:44;;;;;;;18.05;7.78;;;;;;;;;;5008775;28;20403;-59
2023/04/07 05:07:10;;;;;;;14.05;8.00;;;;;;;;;;5010185;28;20642;-59
2023/04/07 05:09:36;;;;;;;25.63;10.25;;;;;;;;;;5012040;28;20038;-59
2023/04/07 05:12:02;;;;;;;15.00;8.15;;;;;;;;;;5011387;28;20050;-59
2023/04/07 05:14:29;;;;;;;21.73;8.30;;;;;;;;;;5011929;28;21118;-59
2023/04/07 05:16:55;;;;;;;18.40;9.25;;;;;;;;;;5009359;28;20050;-60
2023/04/07 05:19:21;;;;;;;20.55;8.57;;;;;;;;;;5014414;28;20049;-59
2023/04/07 05:21:47;;;;;;;19.20;8.05;;;;;;;;;;5010246;28;20050;-59
2023/04/07 05:24:14;;;;;;;22.35;9.45;;;;;;;;;;5013085;28;20084;-59
2023/04/07 05:26:40;;;;;;;17.83;7.63;;;;;;;;;;5009949;28;20124;-59
2023/04/07 05:29:06;;;;;;;24.98;9.70;;;;;;;;;;5010139;28;20045;-59
2023/04/07 05:31:36;;;;;;;21.60;8.50;;;;;;;;;;5007043;28;20045;-60
2023/04/07 05:34:02;;;;;;;18.85;10.55;;;;;;;;;;4999807;28;20053;-59
2023/04/07 05:36:28;;;;;;;20.98;9.98;;;;;;;;;;5005423;28;20062;-59
2023/04/07 05:38:54;;;;;;;16.67;8.45;;;;;;;;;;5008757;28;20138;-59
2023/04/07 05:41:20;;;;;;;16.75;6.68;;;;;;;;;;5013420;28;20046;-59
2023/04/07 05:43:46;;;;;;;28.17;11.77;;;;;;;;;;5011579;28;20042;-59
2023/04/07 05:46:12;;;;;;;15.55;8.43;;;;;;;;;;5010222;28;20069;-59
2023/04/07 05:48:38;;;;;;;21.70;9.95;;;;;;;;;;5009458;28;20500;-59
2023/04/07 05:51:04;;;;;;;20.63;9.68;;;;;;;;;;5008862;28;20046;-59
2023/04/07 05:53:31;;;;;;;17.88;8.88;;;;;;;;;;5013065;28;20129;-59
2023/04/07 05:55:57;;;;;;;23.38;9.70;;;;;;;;;;5012410;28;20574;-60
2023/04/07 05:58:23;;;;;;;21.63;10.18;;;;;;;;;;5012015;28;20046;-59
2023/04/07 06:00:49;;;;;;;16.75;9.18;;;;;;;;;;5010382;28;20045;-59
2023/04/07 06:03:15;;;;;;;27.42;9.73;;;;;;;;;;5011347;28;20610;-59
2023/04/07 06:05:42;;;;;;;19.65;9.88;;;;;;;;;;5007594;28;20057;-59
2023/04/07 06:08:11;;;;;;;23.90;11.45;;;;;;;;;;5012356;28;20046;-59
2023/04/07 06:10:38;;;;;;;20.75;10.88;;;;;;;;;;5043211;28;20042;-59
2023/04/07 06:13:04;;;;;;;24.40;12.00;;;;;;;;;;5008928;28;20598;-58
2023/04/07 06:15:30;;;;;;;23.05;11.38;;;;;;;;;;5012099;28;20074;-58
2023/04/07 06:17:57;;;;;;;26.20;10.35;;;;;;;;;;5012248;28;20500;-58
2023/04/07 06:20:23;;;;;;;22.80;10.18;;;;;;;;;;5011757;28;20097;-58
2023/04/07 06:22:49;;;;;;;23.60;12.23;;;;;;;;;;5011693;28;20048;-58
2023/04/07 06:25:15;;;;;;;21.40;11.10;;;;;;;;;;5008523;28;20090;-58
2023/04/07 06:27:41;;;;;;;25.33;11.32;;;;;;;;;;5012623;28;20046;-58
2023/04/07 06:30:08;;;;;;;24.13;12.57;;;;;;;;;;5007616;28;20073;-58
2023/04/07 06:32:34;;;;;;;26.98;12.60;;;;;;;;;;5033149;28;20528;-58
2023/04/07 06:35:00;;;;;;;24.30;11.80;;;;;;;;;;5010996;28;20200;-57
2023/04/07 06:37:26;;;;;;;22.48;10.02;;;;;;;;;;5008117;28;20523;-58
2023/04/07 06:39:52;;;;;;;22.55;12.65;;;;;;;;;;5009609;28;20056;-58
2023/04/07 06:42:18;;;;;;;21.35;11.02;;;;;;;;;;5007598;28;21156;-58
2023/04/07 06:44:44;;;;;;;19.88;10.25;;;;;;;;;;5004797;28;21337;-58
2023/04/07 06:47:11;;;;;;;17.60;9.80;;;;;;;;;;5008464;28;20042;-59
2023/04/07 06:49:37;;;;;;;29.30;11.75;;;;;;;;;;5009380;28;20042;-59
2023/04/07 06:52:03;;;;;;;25.83;13.25;;;;;;;;;;5004735;28;20952;-59
2023/04/07 06:54:29;;;;;;;22.27;12.23;;;;;;;;;;5009220;28;20073;-59
2023/04/07 06:56:56;;;;;;;19.35;10.18;;;;;;;;;;5011290;28;20184;-59
2023/04/07 06:59:22;;;;;;;20.38;11.07;;;;;;;;;;5010629;28;20532;-60
2023/04/07 07:01:48;;;;;;;17.85;9.80;;;;;;;;;;5006592;28;20053;-59
2023/04/07 07:04:14;;;;;;;23.50;11.35;;;;;;;;;;5008688;28;20077;-59
2023/04/07 07:06:40;;;;;;;20.90;10.73;;;;;;;;;;5008576;28;20038;-59
2023/04/07 07:09:06;;;;;;;20.08;10.27;;;;;;;;;;5010585;28;20065;-59
2023/04/07 07:11:33;;;;;;;26.35;10.98;;;;;;;;;;5006487;28;20053;-59
2023/04/07 07:13:59;;;;;;;21.85;8.82;;;;;;;;;;5008019;28;20042;-58
2023/04/07 07:16:25;;;;;;;20.73;9.90;;;;;;;;;;5007294;28;21209;-59
2023/04/07 07:18:51;;;;;;;27.65;14.98;;;;;;;;;;5007681;28;20046;-58
2023/04/07 07:21:18;;;;;;;22.10;11.88;;;;;;;;;;5007042;28;20049;-59
2023/04/07 07:23:44;;;;;;;21.45;10.95;;;;;;;;;;5006914;28;20076;-59
2023/04/07 07:26:10;;;;;;;19.75;11.80;;;;;;;;;;5008315;28;20107;-59
2023/04/07 07:28:36;;;;;;;20.90;11.98;;;;;;;;;;5007040;28;20164;-59
2023/04/07 07:31:09;;;;;;;25.95;11.02;;;;;;;;;;5009171;28;20192;-59
2023/04/07 07:33:39;;;;;;;17.42;10.10;;;;;;;;;;5005555;28;20382;-59
2023/04/07 07:36:05;;;;;;;27.58;11.70;;;;;;;;;;5004268;28;20041;-59
2023/04/07 07:38:31;;;;;;;33.90;13.30;;;;;;;;;;5008696;28;20101;-58
2023/04/07 07:40:57;;;;;;;23.90;10.27;;;;;;;;;;5011348;28;20578;-58
2023/04/07 07:43:23;;;;;;;18.58;9.15;;;;;;;;;;4995668;28;20046;-59
2023/04/07 07:45:49;;;;;;;19.52;12.73;;;;;;;;;;5006164;28;20230;-59
2023/04/07 07:48:15;;;;;;;22.67;11.93;;;;;;;;;;5007268;28;20101;-59
2023/04/07 07:50:43;;;;;;;21.23;9.65;;;;;;;;;;5003531;28;20519;-59
2023/04/07 07:53:09;;;;;;;22.05;10.27;;;;;;;;;;5008147;28;20088;-58
2023/04/07 07:55:35;;;;;;;17.52;10.60;;;;;;;;;;5009791;28;20481;-58
2023/04/07 07:58:01;;;;;;;22.00;11.13;;;;;;;;;;5004029;28;20042;-59
2023/04/07 08:00:28;;;;;;;21.40;10.73;;;;;;;;;;5007963;28;20060;-59
2023/04/07 08:02:54;;;;;;;20.10;9.77;;;;;;;;;;5009497;28;20086;-58
2023/04/07 08:05:20;;;;;;;19.00;11.63;;;;;;;;;;5006587;28;20053;-59
2023/04/07 08:07:47;;;;;;;16.33;10.57;;;;;;;;;;5005654;28;20117;-59
2023/04/07 08:10:13;;;;;;;22.05;10.23;;;;;;;;;;5010898;28;20049;-59
2023/04/07 08:12:40;;;;;;;25.65;13.32;;;;;;;;;;5010707;28;20042;-58
2023/04/07 08:15:08;;;;;;;15.35;7.72;;;;;;;;;;5007216;28;20120;-58
2023/04/07 08:17:35;;;;;;;18.85;10.02;;;;;;;;;;5022060;28;20380;-59
2023/04/07 08:20:02;;;;;;;10.93;5.97;;;;;;;;;;5008347;28;20057;-58
2023/04/07 08:22:28;;;;;;;18.48;9.77;;;;;;;;;;5001619;28;20694;-58
2023/04/07 08:24:54;;;;;;;13.75;8.95;;;;;;;;;;5009898;28;20057;-58
2023/04/07 08:27:20;;;;;;;15.20;9.75;;;;;;;;;;5009349;28;20627;-57
2023/04/07 08:29:57;;;;;;;23.40;10.20;;;;;;;;;;5012242;28;20133;-60
2023/04/07 08:32:23;;;;;;;9.02;4.80;;;;;;;;;;5011347;28;20081;-58
2023/04/07 08:34:50;;;;;;;29.00;11.07;;;;;;;;;;5013220;28;20563;-58
2023/04/07 08:37:16;;;;;;;15.40;9.00;;;;;;;;;;5009832;28;20575;-58
2023/04/07 08:39:42;;;;;;;17.48;9.95;;;;;;;;;;5010982;28;20046;-58
2023/04/07 08:42:08;;;;;;;8.77;5.57;;;;;;;;;;5008505;28;20164;-58
2023/04/07 08:44:36;;;;;;;17.38;9.05;;;;;;;;;;5012465;28;20038;-57
2023/04/07 08:47:03;;;;;;;14.70;8.98;;;;;;;;;;5011941;28;20045;-57
2023/04/07 08:49:31;;;;;;;16.15;9.13;;;;;;;;;;5011279;28;20057;-58
2023/04/07 08:52:00;;;;;;;14.82;9.40;;;;;;;;;;5010487;28;20177;-58
2023/04/07 08:54:26;;;;;;;16.60;9.52;;;;;;;;;;5011463;28;20053;-58
2023/04/07 08:56:52;;;;;;;17.88;10.63;;;;;;;;;;5012371;28;20120;-58
2023/04/07 08:59:24;;;;;;;14.05;8.98;;;;;;;;;;5047658;28;20579;-59
2023/04/07 09:01:50;;;;;;;17.90;8.02;;;;;;;;;;5016395;28;20566;-58
2023/04/07 09:04:17;;;;;;;16.15;8.93;;;;;;;;;;5017075;28;20042;-59
2023/04/07 09:06:43;;;;;;;14.82;9.25;;;;;;;;;;5016008;28;20042;-58
2023/04/07 09:09:09;;;;;;;14.65;8.68;;;;;;;;;;5014331;28;20045;-58
2023/04/07 09:11:38;;;;;;;17.08;7.90;;;;;;;;;;5016443;28;20077;-57
2023/04/07 09:14:04;;;;;;;18.20;9.45;;;;;;;;;;5014529;28;20050;-59
2023/04/07 09:16:31;;;;;;;7.50;4.32;;;;;;;;;;5015746;28;20047;-58
2023/04/07 09:18:57;;;;;;;13.13;8.15;;;;;;;;;;5013623;28;20077;-60
2023/04/07 09:21:24;;;;;;;12.15;6.05;;;;;;;;;;5014808;28;20097;-58
2023/04/07 09:23:50;;;;;;;21.17;9.02;;;;;;;;;;5011675;28;20041;-58
2023/04/07 09:26:27;;;;;;;13.27;6.97;;;;;;;;;;5014936;28;20101;-59
2023/04/07 09:28:53;;;;;;;13.05;7.75;;;;;;;;;;5012361;28;20061;-59
2023/04/07 09:31:25;;;;;;;9.98;5.72;;;;;;;;;;5013460;28;20100;-59
2023/04/07 09:33:52;;;;;;;8.32;5.22;;;;;;;;;;5013968;28;20189;-59
2023/04/07 09:36:18;;;;;;;10.25;6.18;;;;;;;;;;5015077;28;20047;-59
2023/04/07 09:38:45;;;;;;;8.25;5.50;;;;;;;;;;5013381;28;20126;-59
2023/04/07 09:41:12;;;;;;;8.35;5.68;;;;;;;;;;5013368;28;20045;-59
2023/04/07 09:43:40;;;;;;;9.43;5.07;;;;;;;;;;5012034;28;20082;-59
2023/04/07 09:46:26;;;;;;;12.18;4.70;;;;;;;;;;5013478;28;20046;-59
2023/04/07 09:49:01;;;;;;;12.90;4.43;;;;;;;;;;5014314;28;20068;-59
2023/04/07 09:51:27;;;;;;;12.52;4.50;;;;;;;;;;5010955;28;20548;-59
2023/04/07 09:53:53;;;;;;;12.23;5.93;;;;;;;;;;5044699;28;20088;-59
2023/04/07 09:56:23;;;;;;;9.32;5.72;;;;;;;;;;5007635;28;20525;-58
2023/04/07 10:10:24;;;;;;;23.83;4.85;;;;;;;;;;5118012;27;20132;-58
2023/04/07 10:12:53;;;;;;;10.85;3.65;;;;;;;;;;5101030;27;20089;-58
2023/04/07 10:15:19;;;;;;;11.43;3.40;;;;;;;;;;5100735;27;20163;-58
2023/04/07 10:17:50;;;;;;;8.75;4.38;;;;;;;;;;5101071;27;20515;-59
2023/04/07 10:20:17;;;;;;;8.98;3.17;;;;;;;;;;5101836;27;20095;-58
2023/04/07 10:22:44;;;;;;;4.43;2.92;;;;;;;;;;5101863;27;20066;-58
2023/04/07 10:25:12;;;;;;;7.22;3.70;;;;;;;;;;5101620;27;20067;-59
2023/04/07 10:27:38;;;;;;;5.60;3.45;;;;;;;;;;5101136;27;20127;-58
2023/04/07 10:30:06;;;;;;;7.68;3.00;;;;;;;;;;5100733;27;20269;-57
2023/04/07 10:32:32;;;;;;;8.02;2.65;;;;;;;;;;5101010;27;20059;-59
2023/04/07 10:34:59;;;;;;;6.60;3.00;;;;;;;;;;5101331;27;20082;-59
2023/04/07 10:37:26;;;;;;;4.03;1.83;;;;;;;;;;5102739;27;20044;-58
2023/04/07 10:40:12;;;;;;;4.25;2.33;;;;;;;;;;5099996;27;20537;-59
2023/04/07 10:42:38;;;;;;;8.63;2.55;;;;;;;;;;5102978;27;20038;-59
2023/04/07 10:45:05;;;;;;;5.38;2.60;;;;;;;;;;5100161;27;20055;-59
2023/04/07 10:47:31;;;;;;;5.40;2.67;;;;;;;;;;5100954;27;20403;-59
2023/04/07 10:50:19;;;;;;;4.75;1.98;;;;;;;;;;5101078;27;20036;-59
2023/04/07 10:52:49;;;;;;;8.52;1.90;;;;;;;;;;5101192;27;20086;-59
2023/04/07 10:55:32;;;;;;;1.70;1.30;;;;;;;;;;5098156;27;20113;-59
2023/04/07 10:58:17;;;;;;;6.72;1.88;;;;;;;;;;5083077;27;20497;-58
2023/04/07 11:01:03;;;;;;;5.97;1.85;;;;;;;;;;5100265;27;20594;-59
2023/04/07 11:03:31;;;;;;;6.70;2.30;;;;;;;;;;5099193;27;20512;-59
2023/04/07 11:06:03;;;;;;;5.68;2.42;;;;;;;;;;5102010;27;20036;-59
2023/04/07 11:08:33;;;;;;;3.70;1.90;;;;;;;;;;5099340;27;20056;-59
2023/04/07 11:10:59;;;;;;;5.57;2.05;;;;;;;;;;5086978;27;20045;-59
2023/04/07 11:13:26;;;;;;;4.97;2.10;;;;;;;;;;5087545;28;20040;-59
2023/04/07 11:15:52;;;;;;;3.28;1.83;;;;;;;;;;5083914;28;20617;-59
2023/04/07 11:18:24;;;;;;;8.38;2.20;;;;;;;;;;5087896;28;20051;-59
2023/04/07 11:20:55;;;;;;;1.67;1.25;;;;;;;;;;5086254;27;20044;-59
2023/04/07 11:23:24;;;;;;;5.05;2.00;;;;;;;;;;5087011;27;20584;-59
2023/04/07 11:25:51;;;;;;;3.60;1.85;;;;;;;;;;5086392;28;20427;-59
2023/04/07 11:28:17;;;;;;;2.55;1.55;;;;;;;;;;5087388;28;20450;-59
2023/04/07 11:30:50;;;;;;;5.88;1.80;;;;;;;;;;5070026;28;20096;-59
2023/04/07 11:33:18;;;;;;;3.85;1.67;;;;;;;;;;5071178;28;20050;-59
2023/04/07 11:35:48;;;;;;;6.55;2.05;;;;;;;;;;5087453;28;20193;-59
2023/04/07 11:38:15;;;;;;;1.85;0.90;;;;;;;;;;5086496;28;20033;-59
2023/04/07 11:40:41;;;;;;;3.70;1.73;;;;;;;;;;5086249;27;20170;-59
2023/04/07 11:43:17;;;;;;;4.53;1.70;;;;;;;;;;5085512;28;20043;-59
2023/04/07 11:45:43;;;;;;;4.22;1.70;;;;;;;;;;5081909;28;20066;-59
2023/04/07 11:48:28;;;;;;;3.33;2.00;;;;;;;;;;5086959;28;20040;-59
2023/04/07 11:50:54;;;;;;;3.20;1.58;;;;;;;;;;5086248;28;20502;-59
2023/04/07 11:53:26;;;;;;;3.28;1.55;;;;;;;;;;5087155;28;20167;-59
2023/04/07 11:55:52;;;;;;;;;;;;;;;;;;5086242;28;20080;-59
2023/04/07 11:58:18;;;;;;;4.47;1.73;;;;;;;;;;5086510;28;20484;-59
2023/04/07 12:00:54;;;;;;;3.10;1.20;;;;;;;;;;5084813;28;20033;-59
2023/04/07 12:03:21;;;;;;;4.30;2.10;;;;;;;;;;5087151;28;20045;-59
2023/04/07 12:05:47;;;;;;;3.30;1.80;;;;;;;;;;5087085;28;20040;-62
2023/04/07 12:08:14;;;;;;;8.07;2.15;;;;;;;;;;5086498;28;20098;-59
2023/04/07 12:10:41;;;;;;;4.38;1.63;;;;;;;;;;5085953;28;20048;-59
2023/04/07 12:13:08;;;;;;;7.10;1.90;;;;;;;;;;5087559;28;20036;-59
2023/04/07 12:15:35;;;;;;;3.40;1.80;;;;;;;;;;5084914;27;20123;-59
2023/04/07 12:18:02;;;;;;;4.40;1.60;;;;;;;;;;5084957;28;20127;-59
2023/04/07 12:20:28;;;;;;;3.55;1.40;;;;;;;;;;5084729;28;20534;-59
2023/04/07 12:22:54;;;;;;;8.85;3.60;;;;;;;;;;5085561;28;20233;-58
2023/04/07 12:25:20;;;;;;;2.78;1.83;;;;;;;;;;5084909;28;20036;-57
2023/04/07 12:27:46;;;;;;;6.43;1.48;;;;;;;;;;5070192;28;20783;-57
2023/04/07 12:30:12;;;;;;;2.83;1.40;;;;;;;;;;5085230;28;20234;-57
2023/04/07 12:32:39;;;;;;;5.80;1.73;;;;;;;;;;5085690;28;20102;-57
2023/04/07 12:35:07;;;;;;;5.63;1.73;;;;;;;;;;5086274;28;20040;-57
2023/04/07 12:37:34;;;;;;;4.03;2.65;;;;;;;;;;5084150;28;20048;-57
2023/04/07 12:40:00;;;;;;;5.60;2.03;;;;;;;;;;5086137;27;20130;-57
2023/04/07 12:42:26;;;;;;;8.88;2.20;;;;;;;;;;5086284;28;20048;-57
2023/04/07 12:44:52;;;;;;;3.70;1.75;;;;;;;;;;5083708;28;20572;-57
2023/04/07 12:47:18;;;;;;;1.27;0.70;;;;;;;;;;5086649;28;20535;-57
2023/04/07 12:49:45;;;;;;;8.52;2.10;;;;;;;;;;5084960;28;20553;-58
2023/04/07 12:52:11;;;;;;;3.53;2.22;;;;;;;;;;5087651;28;20548;-58
2023/04/07 12:54:38;;;;;;;5.88;2.33;;;;;;;;;;5086526;28;20565;-58
2023/04/07 12:57:04;;;;;;;7.53;1.70;;;;;;;;;;5085194;28;20045;-58
2023/04/07 12:59:30;;;;;;;5.68;1.60;;;;;;;;;;5085673;28;20048;-58
2023/04/07 13:01:56;;;;;;;6.47;1.98;;;;;;;;;;5085054;28;20174;-58
2023/04/07 13:04:23;;;;;;;3.97;1.48;;;;;;;;;;5085505;28;20052;-58
2023/04/07 13:06:50;;;;;;;6.85;1.50;;;;;;;;;;5082376;27;20048;-58
2023/04/07 13:09:16;;;;;;;2.70;1.23;;;;;;;;;;5082445;28;20106;-58
2023/04/07 13:11:42;;;;;;;1.90;1.27;;;;;;;;;;5085104;28;20041;-58
2023/04/07 13:14:08;;;;;;;2.63;1.60;;;;;;;;;;5087175;28;20097;-58
2023/04/07 13:16:34;;;;;;;4.22;1.50;;;;;;;;;;5085313;28;20093;-58
2023/04/07 13:19:01;;;;;;;8.27;1.80;;;;;;;;;;5085136;28;20656;-59
2023/04/07 13:21:27;;;;;;;8.48;2.38;;;;;;;;;;5084212;28;20043;-58
2023/04/07 13:23:53;;;;;;;3.92;1.15;;;;;;;;;;5085901;28;20064;-58
2023/04/07 13:26:19;;;;;;;4.65;2.03;;;;;;;;;;5083265;28;20044;-58
2023/04/07 13:28:46;;;;;;;3.55;1.13;;;;;;;;;;5085966;28;20139;-58
2023/04/07 13:31:14;;;;;;;2.97;1.20;;;;;;;;;;5086421;27;20051;-58
2023/04/07 13:33:41;;;;;;;5.95;1.20;;;;;;;;;;5085848;27;20040;-58
2023/04/07 13:36:07;;;;;;;2.78;1.02;;;;;;;;;;5069251;28;20051;-58
2023/04/07 13:38:33;;;;;;;1.20;0.60;;;;;;;;;;5084477;28;20470;-58
2023/04/07 13:40:59;;;;;;;4.72;1.50;;;;;;;;;;5083990;28;20048;-58
2023/04/07 13:43:25;;;;;;;1.63;1.27;;;;;;;;;;5085909;28;20056;-58
2023/04/07 13:45:51;;;;;;;4.55;1.52;;;;;;;;;;5084594;28;20039;-58
2023/04/07 13:48:18;;;;;;;3.30;1.55;;;;;;;;;;5083465;27;20151;-58
2023/04/07 13:50:44;;;;;;;3.55;1.17;;;;;;;;;;5086641;28;20044;-58
2023/04/07 13:53:10;;;;;;;4.53;1.50;;;;;;;;;;5084530;28;20530;-58
2023/04/07 13:55:36;;;;;;;2.67;1.27;;;;;;;;;;5083870;28;20065;-58
2023/04/07 13:58:02;;;;;;;5.05;1.95;;;;;;;;;;5083247;28;20645;-58
2023/04/07 14:00:28;;;;;;;5.38;1.30;;;;;;;;;;5084052;28;20437;-58
2023/04/07 14:02:58;;;;;;;3.17;1.40;;;;;;;;;;5084012;28;20039;-58
2023/04/07 14:05:24;;;;;;;4.60;1.48;;;;;;;;;;5083359;28;20046;-58
2023/04/07 14:07:50;;;;;;;4.53;1.50;;;;;;;;;;5066246;28;20041;-58
2023/04/07 14:10:16;;;;;;;2.22;1.33;;;;;;;;;;5083445;28;20113;-58
2023/04/07 14:12:42;;;;;;;2.63;1.17;;;;;;;;;;5083618;28;20656;-58
2023/04/07 14:15:09;;;;;;;5.93;2.42;;;;;;;;;;5084083;28;20629;-59
2023/04/07 14:17:35;;;;;;;8.13;2.50;;;;;;;;;;5085084;28;20434;-59
2023/04/07 14:20:02;;;;;;;1.95;0.93;;;;;;;;;;5082100;28;20045;-59
2023/04/07 14:22:28;;;;;;;4.20;1.40;;;;;;;;;;5079353;28;20151;-59
2023/04/07 14:24:55;;;;;;;4.45;1.23;;;;;;;;;;5079464;28;20052;-59
2023/04/07 14:27:21;;;;;;;4.60;1.48;;;;;;;;;;5078750;28;20074;-59
2023/04/07 14:29:47;;;;;;;4.28;1.48;;;;;;;;;;5063734;28;20628;-59
2023/04/07 14:32:14;;;;;;;2.13;1.83;;;;;;;;;;5081944;28;20906;-58
2023/04/07 14:34:40;;;;;;;1.85;1.15;;;;;;;;;;5081657;28;20044;-59
2023/04/07 14:37:06;;;;;;;4.30;1.20;;;;;;;;;;5080909;28;20037;-59
2023/04/07 14:39:32;;;;;;;7.22;1.50;;;;;;;;;;5081498;28;20208;-59
2023/04/07 14:41:59;;;;;;;3.35;1.30;;;;;;;;;;5080941;28;20044;-60
2023/04/07 14:44:27;;;;;;;4.50;1.67;;;;;;;;;;5065470;28;20045;-59
2023/04/07 14:46:54;;;;;;;4.15;1.40;;;;;;;;;;5084804;27;20036;-59